Burchinal, Iowa
Current Conditions -  °F | °C
As of 1:53 AM on Monday 29 Dec 2014 (Local Time) from KMCW Reporting Station
Overcast Overcast  
Wind Chill:   Ceiling: 6000
Heat Index: 18°   Visibility: 8mi
Dew Point: 14°   Wind: 10mph
Humidity: 84%   Direction: 30°NNE
Pressure: 30.32"   Gusts: NA
Location:  43.0122°N, 93.2395°W
Report Text: KMCW 290753Z AUTO 03009KT 8SM OVC060 M08/M10 A3032 RMK AO2 SLP283 T10781100 $
Loading
Personal Weather Stations






























Interactive Weather Map New forecast layout! Learn more

10-Day Weather Forecast

Advertisements
Track Severe Weather on mobile